createdAt,value
2022-12-23T00:01:25.687Z,57.36
2022-12-23T00:03:58.423Z,56.93
2022-12-23T00:06:27.485Z,57.67
2022-12-23T00:08:58.941Z,57.27
2022-12-23T00:11:29.033Z,58.73
2022-12-23T00:14:21.235Z,59.53
2022-12-23T00:16:51.174Z,60.13
2022-12-23T00:19:19.449Z,60.69
2022-12-23T00:21:48.771Z,61.57
2022-12-23T00:24:17.294Z,60.00
2022-12-23T00:26:45.581Z,59.79
2022-12-23T00:29:13.949Z,60.23
2022-12-23T00:31:42.096Z,60.18
2022-12-23T00:34:12.299Z,59.85
2022-12-23T00:36:41.053Z,59.59
2022-12-23T00:39:31.398Z,58.34
2022-12-23T00:42:17.948Z,58.51
2022-12-23T00:44:46.180Z,58.49
2022-12-23T00:47:34.171Z,58.30
2022-12-23T00:50:02.307Z,58.91
2022-12-23T00:52:30.645Z,59.04
2022-12-23T00:54:58.751Z,58.96
2022-12-23T00:57:27.099Z,58.42
2022-12-23T00:59:55.095Z,58.53
2022-12-23T01:02:41.765Z,58.38
2022-12-23T01:05:29.859Z,58.73
2022-12-23T01:07:58.283Z,59.04
2022-12-23T01:10:26.486Z,59.48
2022-12-23T01:12:54.762Z,58.89
2022-12-23T01:15:23.513Z,59.27
2022-12-23T01:17:51.827Z,59.98
2022-12-23T01:20:20.507Z,59.69
2022-12-23T01:22:48.611Z,59.04
2022-12-23T01:25:18.357Z,58.04
2022-12-23T01:27:46.459Z,57.99
2022-12-23T01:30:14.674Z,57.85
2022-12-23T01:32:42.917Z,57.48
2022-12-23T01:35:11.120Z,57.31
2022-12-23T01:37:39.355Z,57.47
2022-12-23T01:40:09.334Z,57.73
2022-12-23T01:42:47.560Z,58.07
2022-12-23T01:45:23.843Z,59.49
2022-12-23T01:48:00.622Z,59.19
2022-12-23T01:50:38.233Z,58.97
2022-12-23T01:53:15.168Z,58.81
2022-12-23T01:55:51.089Z,59.20
2022-12-23T01:58:32.285Z,59.43
2022-12-23T02:01:20.616Z,59.14
2022-12-23T02:03:50.810Z,58.77
2022-12-23T02:06:42.474Z,58.21
2022-12-23T02:09:21.783Z,58.11
2022-12-23T02:11:58.934Z,58.50
2022-12-23T02:14:57.885Z,59.00
2022-12-23T02:17:45.856Z,58.87
2022-12-23T02:20:23.397Z,58.44
2022-12-23T02:23:13.536Z,59.11
2022-12-23T02:26:00.734Z,59.98
2022-12-23T02:28:53.500Z,59.42
2022-12-23T02:31:42.933Z,59.18
2022-12-23T02:34:17.037Z,59.08
2022-12-23T02:36:57.683Z,58.45
2022-12-23T02:39:54.335Z,58.26
2022-12-23T02:42:37.417Z,58.31
2022-12-23T02:45:10.205Z,58.27
2022-12-23T02:47:44.675Z,57.48
2022-12-23T02:50:19.451Z,57.72
2022-12-23T02:52:49.892Z,59.51
2022-12-23T02:55:26.342Z,60.13
2022-12-23T02:57:57.793Z,60.77
2022-12-23T03:00:25.833Z,60.45
2022-12-23T03:02:54.094Z,60.10
2022-12-23T03:05:50.120Z,61.23
2022-12-23T03:08:26.731Z,61.15
2022-12-23T03:11:08.724Z,60.75
2022-12-23T03:14:15.005Z,60.20
2022-12-23T03:16:45.950Z,60.20
2022-12-23T03:19:32.646Z,60.45
2022-12-23T03:22:19.691Z,60.28
2022-12-23T03:24:52.764Z,60.68
2022-12-23T03:27:41.786Z,60.57
2022-12-23T03:30:17.243Z,61.53
2022-12-23T03:33:01.145Z,63.42
2022-12-23T03:35:43.966Z,64.27
2022-12-23T03:38:15.033Z,65.61
2022-12-23T03:40:47.644Z,64.57
2022-12-23T03:43:23.873Z,64.52
2022-12-23T03:46:01.057Z,64.18
2022-12-23T03:48:48.385Z,64.11
2022-12-23T03:51:39.797Z,65.22
2022-12-23T03:54:18.086Z,63.74
2022-12-23T03:56:57.325Z,63.19
2022-12-23T03:59:27.809Z,64.75
2022-12-23T04:02:20.581Z,63.63
2022-12-23T04:04:48.982Z,62.62
2022-12-23T04:07:22.667Z,62.81
2022-12-23T04:09:54.873Z,63.28
2022-12-23T04:12:25.121Z,63.34
2022-12-23T04:14:53.692Z,65.20
2022-12-23T04:17:22.039Z,64.46
2022-12-23T04:19:52.198Z,64.11
2022-12-23T04:22:20.231Z,63.98
2022-12-23T04:24:48.306Z,62.54
2022-12-23T04:27:16.708Z,61.47
2022-12-23T04:29:44.971Z,61.63
2022-12-23T04:32:13.027Z,60.90
2022-12-23T04:34:41.082Z,59.73
2022-12-23T04:37:10.542Z,60.28
2022-12-23T04:39:38.702Z,61.59
2022-12-23T04:42:06.830Z,61.34
2022-12-23T04:44:34.917Z,60.51
2022-12-23T04:47:03.223Z,59.69
2022-12-23T04:49:32.154Z,59.51
2022-12-23T04:52:00.606Z,59.54
2022-12-23T04:54:28.780Z,58.41
2022-12-23T04:56:57.105Z,58.00
2022-12-23T04:59:25.103Z,56.85
2022-12-23T05:01:53.400Z,55.91
2022-12-23T05:04:21.582Z,56.14
2022-12-23T05:06:50.832Z,56.28
2022-12-23T05:09:19.101Z,57.52
2022-12-23T05:11:47.266Z,57.27
2022-12-23T05:14:15.430Z,57.55
2022-12-23T05:16:43.624Z,57.41
2022-12-23T05:19:12.208Z,57.33
2022-12-23T05:21:40.378Z,56.08
2022-12-23T05:24:08.869Z,55.27
2022-12-23T05:26:37.170Z,56.19
2022-12-23T05:29:06.234Z,57.10
2022-12-23T05:31:34.418Z,57.86
2022-12-23T05:34:06.562Z,58.02
2022-12-23T05:36:35.243Z,57.80
2022-12-23T05:39:03.623Z,57.88
2022-12-23T05:41:31.998Z,57.24
2022-12-23T05:44:00.098Z,57.10
2022-12-23T05:46:28.139Z,57.35
2022-12-23T05:48:56.303Z,58.24
2022-12-23T05:51:24.656Z,57.86
2022-12-23T05:53:52.991Z,59.63
2022-12-23T05:56:21.028Z,59.74
2022-12-23T05:58:49.181Z,58.66
2022-12-23T06:01:17.231Z,58.49
2022-12-23T06:03:45.331Z,58.88
2022-12-23T06:06:14.269Z,59.55
2022-12-23T06:08:42.285Z,59.49
2022-12-23T06:11:10.473Z,58.91
2022-12-23T06:13:38.762Z,58.31
2022-12-23T06:16:07.332Z,57.97
2022-12-23T06:18:35.378Z,58.35
2022-12-23T06:21:03.885Z,57.58
2022-12-23T06:23:32.065Z,58.21
2022-12-23T06:26:02.260Z,59.50
2022-12-23T06:28:30.496Z,59.99
2022-12-23T06:30:58.763Z,61.52
2022-12-23T06:33:26.811Z,62.67
2022-12-23T06:35:55.084Z,63.56
2022-12-23T06:38:23.273Z,63.11
2022-12-23T06:40:51.350Z,62.89
2022-12-23T06:43:19.520Z,62.32
2022-12-23T06:45:48.809Z,62.27
2022-12-23T06:48:17.555Z,62.64
2022-12-23T06:50:46.600Z,62.54
2022-12-23T06:53:14.760Z,61.54
2022-12-23T06:55:43.323Z,61.13
2022-12-23T06:58:11.427Z,61.11
2022-12-23T07:00:39.672Z,60.98
2022-12-23T07:03:07.832Z,60.64
2022-12-23T07:05:37.541Z,59.94
2022-12-23T07:08:06.292Z,59.77
2022-12-23T07:10:34.745Z,60.28
2022-12-23T07:13:02.921Z,59.60
2022-12-23T07:15:31.060Z,59.66
2022-12-23T07:17:59.244Z,59.74
2022-12-23T07:20:27.403Z,59.66
2022-12-23T07:22:57.230Z,58.19
2022-12-23T07:25:25.267Z,56.44
2022-12-23T07:27:55.144Z,54.96
2022-12-23T07:30:23.680Z,54.44
2022-12-23T07:32:52.007Z,53.28
2022-12-23T07:35:20.422Z,52.57
2022-12-23T07:37:53.873Z,51.98
2022-12-23T07:40:23.599Z,52.67
2022-12-23T07:42:56.846Z,53.10
2022-12-23T07:45:27.603Z,52.72
2022-12-23T07:47:57.587Z,52.62
2022-12-23T07:50:27.104Z,53.37
2022-12-23T07:52:56.278Z,53.61
2022-12-23T07:55:24.552Z,53.61
2022-12-23T07:57:53.729Z,53.58
2022-12-23T08:00:22.334Z,53.70
2022-12-23T08:02:50.655Z,54.19
2022-12-23T08:05:19.103Z,54.76
2022-12-23T08:07:49.925Z,54.76
2022-12-23T08:10:18.096Z,54.10
2022-12-23T08:12:46.718Z,53.99
2022-12-23T08:15:15.067Z,53.97
2022-12-23T08:17:43.203Z,54.96
2022-12-23T08:20:12.014Z,56.66
2022-12-23T08:22:40.199Z,57.35
2022-12-23T08:25:08.888Z,56.64
2022-12-23T08:27:37.270Z,55.45
2022-12-23T08:30:06.453Z,54.98
2022-12-23T08:32:34.621Z,55.79
2022-12-23T08:35:02.712Z,56.11
2022-12-23T08:37:31.174Z,57.36
2022-12-23T08:39:59.352Z,58.71
2022-12-23T08:42:27.446Z,59.87
2022-12-23T08:44:55.586Z,60.20
2022-12-23T08:47:23.656Z,59.25
2022-12-23T08:49:51.730Z,58.60
2022-12-23T08:52:19.908Z,56.87
2022-12-23T08:54:48.094Z,56.64
2022-12-23T08:57:16.281Z,55.42
2022-12-23T08:59:44.520Z,55.32
2022-12-23T09:02:12.848Z,53.89
2022-12-23T09:04:41.093Z,55.05
2022-12-23T09:07:09.155Z,55.23
2022-12-23T09:09:38.744Z,55.28
2022-12-23T09:12:07.038Z,54.65
2022-12-23T09:14:35.276Z,53.49
2022-12-23T09:17:03.336Z,53.48
2022-12-23T09:19:31.544Z,53.56
2022-12-23T09:21:59.700Z,53.95
2022-12-23T09:24:27.811Z,53.92
2022-12-23T09:26:55.900Z,54.26
2022-12-23T09:29:23.914Z,54.53
2022-12-23T09:31:51.948Z,53.88
2022-12-23T09:34:20.175Z,53.49
2022-12-23T09:36:54.918Z,53.13
2022-12-23T09:39:24.412Z,52.80
2022-12-23T09:42:01.769Z,53.06
2022-12-23T09:44:55.366Z,52.72
2022-12-23T09:47:27.071Z,52.36
2022-12-23T09:50:01.000Z,52.02
2022-12-23T09:52:46.629Z,51.73
2022-12-23T09:55:15.944Z,51.64
2022-12-23T09:58:01.272Z,51.00
2022-12-23T10:00:39.030Z,50.31
2022-12-23T10:03:13.405Z,49.96
2022-12-23T10:05:59.405Z,49.55
2022-12-23T10:08:41.830Z,49.02
2022-12-23T10:11:16.495Z,48.86
2022-12-23T10:13:56.986Z,49.03
2022-12-23T10:16:32.498Z,47.85
2022-12-23T10:19:16.071Z,47.66
2022-12-23T10:21:56.417Z,47.62
2022-12-23T10:24:38.842Z,47.81
2022-12-23T10:27:24.438Z,48.05
2022-12-23T10:29:52.501Z,47.75
2022-12-23T10:32:27.253Z,48.23
2022-12-23T10:34:58.555Z,48.97
2022-12-23T10:37:45.261Z,49.35
2022-12-23T10:40:19.617Z,49.93
2022-12-23T10:42:50.834Z,50.47
2022-12-23T10:45:31.514Z,50.54
2022-12-23T10:48:21.064Z,51.39
2022-12-23T10:50:58.965Z,51.93
2022-12-23T10:53:46.081Z,52.87
2022-12-23T10:56:15.209Z,52.72
2022-12-23T10:58:46.847Z,53.00
2022-12-23T11:01:26.015Z,53.24
2022-12-23T11:04:02.614Z,53.57
2022-12-23T11:06:37.070Z,53.53
2022-12-23T11:09:11.744Z,53.97
2022-12-23T11:12:02.060Z,54.69
2022-12-23T11:14:41.747Z,55.52
2022-12-23T11:17:31.670Z,55.78
2022-12-23T11:20:20.362Z,56.26
2022-12-23T11:22:54.137Z,56.44
2022-12-23T11:25:32.089Z,56.59
2022-12-23T11:28:22.177Z,58.51
2022-12-23T11:30:57.245Z,59.02
2022-12-23T11:33:28.436Z,58.65
2022-12-23T11:36:14.412Z,58.13
2022-12-23T11:38:51.900Z,57.88
2022-12-23T11:41:27.860Z,58.20
2022-12-23T11:44:03.724Z,59.18
2022-12-23T11:46:33.615Z,58.82
2022-12-23T11:49:14.011Z,58.29
2022-12-23T11:51:48.639Z,57.83
2022-12-23T11:54:19.951Z,57.41
2022-12-23T11:56:51.680Z,57.44
2022-12-23T11:59:41.420Z,57.25
2022-12-23T12:02:19.104Z,57.42
2022-12-23T12:05:02.711Z,56.99
2022-12-23T12:07:31.632Z,57.78
2022-12-23T12:10:01.513Z,58.52
2022-12-23T12:12:30.473Z,58.80
2022-12-23T12:15:00.545Z,59.43
2022-12-23T12:17:37.890Z,60.08
2022-12-23T12:20:06.593Z,60.13
2022-12-23T12:22:54.739Z,60.36
2022-12-23T12:25:53.745Z,59.37
2022-12-23T12:28:26.316Z,60.27
2022-12-23T12:31:03.370Z,60.56
2022-12-23T12:33:39.808Z,60.82
2022-12-23T12:36:33.282Z,61.33
2022-12-23T12:39:01.364Z,61.24
2022-12-23T12:41:37.015Z,60.98
2022-12-23T12:44:22.155Z,61.30
2022-12-23T12:46:56.095Z,61.12
2022-12-23T12:49:35.899Z,61.34
2022-12-23T12:52:12.009Z,61.86
2022-12-23T12:54:56.549Z,61.82
2022-12-23T12:57:25.201Z,61.20
2022-12-23T13:00:03.567Z,61.43
2022-12-23T13:02:43.974Z,61.14
2022-12-23T13:05:41.594Z,60.43
2022-12-23T13:08:43.193Z,60.47
2022-12-23T13:11:34.470Z,61.32
2022-12-23T13:14:22.770Z,61.71
2022-12-23T13:17:09.889Z,61.33
2022-12-23T13:19:56.874Z,61.54
2022-12-23T13:22:32.631Z,61.49
2022-12-23T13:25:05.550Z,61.23
2022-12-23T13:28:15.939Z,61.02
2022-12-23T13:30:51.563Z,61.23
2022-12-23T13:33:39.476Z,60.93
2022-12-23T13:36:40.110Z,61.15
2022-12-23T13:39:32.711Z,60.89
2022-12-23T13:42:05.963Z,61.35
2022-12-23T13:44:35.478Z,61.73
2022-12-23T13:47:22.392Z,62.10
2022-12-23T13:49:50.370Z,62.30
2022-12-23T13:52:32.990Z,61.84
2022-12-23T13:55:26.147Z,62.12
2022-12-23T13:58:13.633Z,61.65
2022-12-23T14:00:41.727Z,61.88
2022-12-23T14:03:09.927Z,61.87
2022-12-23T14:05:38.961Z,61.67
2022-12-23T14:08:19.760Z,61.45
2022-12-23T14:10:59.120Z,61.29
2022-12-23T14:13:30.713Z,61.44
2022-12-23T14:16:40.209Z,61.72
2022-12-23T14:19:30.121Z,62.39
2022-12-23T14:22:19.868Z,62.40
2022-12-23T14:24:59.824Z,62.15
2022-12-23T14:27:42.771Z,61.46
2022-12-23T14:30:36.410Z,60.70
2022-12-23T14:33:38.181Z,59.94
2022-12-23T14:36:26.931Z,59.48
2022-12-23T14:39:13.530Z,59.19
2022-12-23T14:41:47.742Z,59.06
2022-12-23T14:44:43.792Z,58.63
2022-12-23T14:47:35.702Z,58.92
2022-12-23T14:50:34.376Z,59.02
2022-12-23T14:53:24.985Z,59.57
2022-12-23T14:56:19.039Z,59.87
2022-12-23T14:59:24.196Z,60.08
2022-12-23T15:02:14.776Z,60.42
2022-12-23T15:04:50.978Z,60.50
2022-12-23T15:07:21.981Z,60.57
2022-12-23T15:10:02.788Z,60.64
2022-12-23T15:12:35.963Z,61.08
2022-12-23T15:15:21.554Z,61.68
2022-12-23T15:18:12.112Z,63.46
2022-12-23T15:20:40.240Z,65.60
2022-12-23T15:23:10.202Z,65.30
2022-12-23T15:25:46.095Z,66.50
2022-12-23T15:28:19.734Z,68.00
2022-12-23T15:30:52.381Z,67.79
2022-12-23T15:36:14.633Z,69.00
2022-12-23T15:38:42.681Z,67.70
2022-12-23T15:41:18.794Z,68.08
2022-12-23T15:43:47.009Z,68.95
2022-12-23T15:46:29.925Z,69.36
2022-12-23T15:48:59.042Z,69.82
2022-12-23T15:52:05.914Z,70.53
2022-12-23T15:54:35.224Z,70.56
2022-12-23T15:57:04.633Z,71.33
2022-12-23T15:59:37.491Z,71.90
2022-12-23T16:05:45.711Z,71.22
2022-12-23T16:08:15.354Z,70.15
2022-12-23T16:11:11.864Z,71.27
2022-12-23T16:13:46.675Z,71.30
2022-12-23T16:16:38.123Z,70.37
2022-12-23T16:19:26.775Z,71.61
2022-12-23T16:21:55.152Z,73.38
2022-12-23T16:24:23.190Z,72.79
2022-12-23T16:26:54.519Z,72.62
2022-12-23T16:29:22.630Z,72.97
2022-12-23T16:31:57.435Z,72.85
2022-12-23T16:34:31.583Z,72.24
2022-12-23T16:36:59.843Z,72.08
2022-12-23T16:39:28.116Z,72.81
2022-12-23T16:41:56.290Z,72.88
2022-12-23T16:44:24.316Z,72.87
2022-12-23T16:46:52.452Z,72.83
2022-12-23T16:49:27.909Z,73.23
2022-12-23T16:51:56.268Z,73.18
2022-12-23T16:54:24.520Z,73.06
2022-12-23T16:56:52.604Z,72.44
2022-12-23T16:59:21.189Z,72.14
2022-12-23T17:01:49.384Z,71.75
2022-12-23T17:04:17.552Z,71.62
2022-12-23T17:06:46.616Z,71.05
2022-12-23T17:09:14.865Z,71.66
2022-12-23T17:11:53.268Z,72.54
2022-12-23T17:14:24.321Z,72.34
2022-12-23T17:16:53.118Z,72.26
2022-12-23T17:19:27.774Z,72.23
2022-12-23T17:22:03.051Z,72.15
2022-12-23T17:24:31.607Z,72.54
2022-12-23T17:26:59.663Z,72.51
2022-12-23T17:29:28.463Z,72.97
2022-12-23T17:31:56.762Z,72.56
2022-12-23T17:34:24.992Z,74.08
2022-12-23T17:36:53.263Z,74.49
2022-12-23T17:39:22.356Z,75.76
2022-12-23T17:41:50.528Z,76.36
2022-12-23T17:44:18.932Z,76.48
2022-12-23T17:46:47.567Z,77.07
2022-12-23T17:49:15.740Z,78.02
2022-12-23T17:51:44.256Z,78.41
2022-12-23T17:54:22.957Z,79.72
2022-12-23T17:56:52.713Z,81.30
2022-12-23T17:59:21.947Z,81.67
2022-12-23T18:01:50.696Z,81.94
2022-12-23T18:04:19.133Z,81.06
2022-12-23T18:06:47.327Z,80.68
2022-12-23T18:09:16.882Z,80.61
2022-12-23T18:11:48.134Z,79.57
2022-12-23T18:14:22.009Z,78.88
2022-12-23T18:16:50.323Z,77.97
2022-12-23T18:19:20.861Z,77.52
2022-12-23T18:21:50.678Z,77.16
2022-12-23T18:24:18.964Z,76.73
2022-12-23T18:26:47.824Z,76.41
2022-12-23T18:29:15.928Z,75.90
2022-12-23T18:31:51.391Z,75.25
2022-12-23T18:34:21.317Z,74.49
2022-12-23T18:36:51.963Z,74.18
2022-12-23T18:39:21.112Z,73.49
2022-12-23T18:41:49.280Z,73.38
2022-12-23T18:44:22.957Z,73.12
2022-12-23T18:46:51.062Z,73.06
2022-12-23T18:49:19.356Z,72.86
2022-12-23T18:51:47.671Z,72.36
2022-12-23T18:54:16.678Z,72.91
2022-12-23T18:56:45.301Z,74.93
2022-12-23T18:59:22.816Z,76.64
2022-12-23T19:01:52.641Z,78.62
2022-12-23T19:04:20.893Z,80.12
2022-12-23T19:06:49.020Z,81.20
2022-12-23T19:09:20.285Z,81.03
2022-12-23T19:11:50.246Z,80.44
2022-12-23T19:14:18.602Z,79.30
2022-12-23T19:16:51.501Z,78.72
2022-12-23T19:19:21.906Z,78.16
2022-12-23T19:21:50.071Z,77.27
2022-12-23T19:24:18.235Z,76.71
2022-12-23T19:26:46.584Z,76.08
2022-12-23T19:29:14.762Z,75.78
2022-12-23T19:31:43.005Z,75.10
2022-12-23T19:34:14.885Z,74.68
2022-12-23T19:36:44.668Z,74.66
2022-12-23T19:39:16.824Z,75.12
2022-12-23T19:41:45.909Z,75.01
2022-12-23T19:44:14.755Z,74.77
2022-12-23T19:46:42.990Z,74.61
2022-12-23T19:49:17.479Z,74.32
2022-12-23T19:51:49.025Z,74.13
2022-12-23T19:54:17.746Z,74.26
2022-12-23T19:56:45.870Z,74.38
2022-12-23T19:59:14.141Z,74.39
2022-12-23T20:01:42.382Z,74.18
2022-12-23T20:04:11.099Z,73.41
2022-12-23T20:06:41.109Z,73.22
2022-12-23T20:09:12.614Z,73.27
2022-12-23T20:11:43.900Z,73.29
2022-12-23T20:14:14.170Z,73.75
2022-12-23T20:16:42.460Z,73.66
2022-12-23T20:19:11.437Z,73.51
2022-12-23T20:21:39.571Z,73.17
2022-12-23T20:24:08.354Z,73.23
2022-12-23T20:26:36.831Z,73.94
2022-12-23T20:29:05.556Z,74.51
2022-12-23T20:31:37.611Z,74.58
2022-12-23T20:34:08.325Z,75.14
2022-12-23T20:36:36.985Z,75.33
2022-12-23T20:39:06.282Z,75.72
2022-12-23T20:41:34.674Z,76.83
2022-12-23T20:44:34.017Z,77.80
2022-12-23T20:46:51.729Z,77.93
2022-12-23T20:49:19.944Z,77.89
2022-12-23T20:51:47.965Z,77.81
2022-12-23T20:54:16.123Z,76.70
2022-12-23T20:56:44.305Z,75.82
2022-12-23T20:59:12.688Z,75.14
2022-12-23T21:01:41.710Z,75.02
2022-12-23T21:04:13.030Z,75.03
2022-12-23T21:06:41.547Z,75.64
2022-12-23T21:09:12.380Z,76.31
2022-12-23T21:11:43.438Z,76.69
2022-12-23T21:14:12.925Z,77.13
2022-12-23T21:16:41.467Z,77.23
2022-12-23T21:19:15.425Z,77.44
2022-12-23T21:21:44.107Z,76.74
2022-12-23T21:24:12.783Z,76.42
2022-12-23T21:26:41.212Z,75.84
2022-12-23T21:29:11.243Z,75.18
2022-12-23T21:31:41.209Z,74.29
2022-12-23T21:34:14.472Z,73.99
2022-12-23T21:36:43.094Z,74.40
2022-12-23T21:39:15.693Z,72.69
2022-12-23T21:41:44.470Z,72.41
2022-12-23T21:44:14.937Z,72.25
2022-12-23T21:46:43.515Z,71.74
2022-12-23T21:49:11.819Z,71.03
2022-12-23T21:51:41.553Z,71.45
2022-12-23T21:54:11.500Z,71.60
2022-12-23T21:56:41.399Z,71.93
2022-12-23T21:59:14.841Z,72.13
2022-12-23T22:01:44.068Z,73.55
2022-12-23T22:04:13.035Z,74.91
2022-12-23T22:06:46.227Z,74.39
2022-12-23T22:09:17.905Z,75.55
2022-12-23T22:11:47.131Z,75.45
2022-12-23T22:14:17.561Z,75.42
2022-12-23T22:16:45.888Z,75.07
2022-12-23T22:19:14.692Z,74.89
2022-12-23T22:21:42.975Z,75.18
2022-12-23T22:24:11.573Z,74.86
2022-12-23T22:26:40.464Z,73.75
2022-12-23T22:29:08.576Z,73.22
2022-12-23T22:31:47.100Z,72.84
2022-12-23T22:34:18.402Z,72.14
2022-12-23T22:36:47.477Z,72.65
2022-12-23T22:39:21.206Z,71.68
2022-12-23T22:41:51.559Z,70.77
2022-12-23T22:44:21.261Z,71.26
2022-12-23T22:46:49.494Z,71.14
2022-12-23T22:49:18.122Z,70.61
2022-12-23T22:51:46.356Z,69.97
2022-12-23T22:54:14.737Z,69.55
2022-12-23T22:56:43.111Z,69.81
2022-12-23T22:59:23.565Z,69.57
2022-12-23T23:01:53.235Z,69.42
2022-12-23T23:04:21.570Z,69.05
2022-12-23T23:06:49.946Z,68.45
2022-12-23T23:09:20.666Z,68.84
2022-12-23T23:11:50.387Z,68.83
2022-12-23T23:14:18.937Z,68.60
2022-12-23T23:16:47.433Z,69.26
2022-12-23T23:19:17.145Z,70.08
2022-12-23T23:21:45.342Z,71.61
2022-12-23T23:24:13.648Z,72.66
2022-12-23T23:26:41.766Z,73.54
2022-12-23T23:29:09.874Z,74.18
2022-12-23T23:31:42.990Z,73.89
2022-12-23T23:34:13.021Z,73.54
2022-12-23T23:36:41.662Z,73.73
2022-12-23T23:39:12.351Z,73.31
2022-12-23T23:41:41.589Z,72.87
2022-12-23T23:44:10.241Z,72.00
2022-12-23T23:46:39.237Z,71.71
2022-12-23T23:49:07.369Z,71.45
2022-12-23T23:51:35.453Z,71.25
2022-12-23T23:54:03.643Z,71.12
2022-12-23T23:56:37.877Z,71.00
2022-12-23T23:59:09.019Z,70.63
